Time;durP1;ratioP1;P1;durP2;ratioP2;P2;SDS_P1;SDS_P2;PMS_P1;PMS_P2;Temp;Humidity;BMP_temperature;BMP_pressure;BME280_temperature;BME280_humidity;BME280_pressure;Samples;Min_cycle;Max_cycle;Signal;HPM_P1;HPM_P2
2023/01/10 00:00:24;;;;;;;11.77;8.40;;;18.30;76.20;;;18.89;42.98;97703.47;5062952;27;20179;-79
2023/01/10 00:03:11;;;;;;;13.95;7.70;;;18.20;76.00;;;18.91;43.04;97703.13;5100786;27;20055;-79
2023/01/10 00:05:38;;;;;;;10.38;7.32;;;18.30;76.80;;;18.91;43.09;97711.38;5080003;27;20037;-79
2023/01/10 00:08:05;;;;;;;8.52;7.03;;;18.30;75.90;;;18.90;43.27;97704.25;5078958;27;20441;-79
2023/01/10 00:10:31;;;;;;;9.13;7.30;;;18.30;76.10;;;18.89;43.38;97714.47;5096190;27;20057;-80
2023/01/10 00:15:43;;;;;;;11.88;7.90;;;18.30;76.40;;;18.89;43.40;97719.16;5083127;27;20418;-79
2023/01/10 00:18:09;;;;;;;11.45;7.25;;;18.30;76.00;;;18.91;42.99;97722.34;5076754;28;20047;-79
2023/01/10 00:20:35;;;;;;;11.73;8.00;;;18.30;76.00;;;18.86;43.19;97718.72;5129489;27;20055;-79
2023/01/10 00:23:02;;;;;;;9.27;7.78;;;18.30;75.90;;;18.89;43.13;97727.41;5096552;28;20039;-79
2023/01/10 00:25:29;;;;;;;10.70;7.22;;;18.20;75.90;;;18.89;42.96;97721.91;5097318;27;20043;-79
2023/01/10 00:30:40;;;;;;;10.50;8.20;;;18.20;75.80;;;18.89;43.07;97725.44;5115589;28;20402;-79
2023/01/10 00:33:07;;;;;;;10.00;6.90;;;18.20;75.80;;;18.92;42.91;97730.22;5110250;27;20035;-79
2023/01/10 00:35:33;;;;;;;11.57;8.48;;;18.30;75.90;;;18.92;42.78;97737.69;5058489;28;20039;-79
2023/01/10 00:38:06;;;;;;;8.02;6.38;;;18.30;75.80;;;18.88;43.08;97745.84;5077578;28;20059;-79
2023/01/10 00:40:32;;;;;;;11.40;7.38;;;18.20;76.10;;;18.90;43.36;97742.72;5078011;28;20638;-79
2023/01/10 00:45:45;;;;;;;10.75;7.32;;;18.20;75.90;;;18.87;42.97;97745.03;5080920;28;20139;-79
2023/01/10 00:48:12;;;;;;;10.50;6.85;;;18.20;75.90;;;18.86;43.07;97757.19;5097175;28;20055;-79
2023/01/10 00:50:39;;;;;;;11.82;7.82;;;18.20;75.90;;;18.90;42.82;97772.94;5096011;28;20039;-79
2023/01/10 00:53:05;;;;;;;11.50;7.43;;;18.20;75.80;;;18.87;43.19;97772.50;5095670;28;20047;-79
2023/01/10 00:55:32;;;;;;;12.60;7.22;;;18.20;76.10;;;18.87;43.33;97764.25;5096657;28;20039;-79
2023/01/10 00:57:58;;;;;;;9.00;7.60;;;18.20;76.50;;;18.87;43.31;97769.75;5074230;28;20040;-79
2023/01/10 01:00:24;;;;;;;8.77;7.25;;;18.20;76.50;;;18.89;43.25;97774.91;5063835;28;20197;-79
2023/01/10 01:02:50;;;;;;;10.90;7.40;;;18.20;76.10;;;18.86;42.96;97775.63;5063584;28;20058;-79
2023/01/10 01:05:18;;;;;;;9.05;7.18;;;18.20;75.90;;;18.84;43.17;97778.72;5111688;28;20121;-79
2023/01/10 01:07:47;;;;;;;9.15;7.20;;;18.20;76.00;;;18.84;42.99;97777.91;5079815;28;20054;-79
2023/01/10 01:10:26;;;;;;;9.65;6.82;;;18.20;75.90;;;18.89;43.34;97782.34;5072929;28;20043;-79
2023/01/10 01:12:54;;;;;;;10.02;8.00;;;18.20;76.40;;;18.86;43.49;97779.16;5076635;28;20800;-79
2023/01/10 01:15:20;;;;;;;9.48;6.55;;;18.20;76.30;;;18.85;43.15;97780.31;5078841;28;20032;-79
2023/01/10 01:17:47;;;;;;;9.15;6.38;;;18.20;76.10;;;18.84;43.14;97778.72;5094474;28;20039;-79
2023/01/10 01:20:15;;;;;;;11.70;7.13;;;18.20;76.00;;;18.83;43.02;97781.81;5056492;28;20054;-79
2023/01/10 01:22:41;;;;;;;9.07;6.93;;;18.20;76.00;;;18.84;43.17;97786.16;5079320;27;20130;-79
2023/01/10 01:25:08;;;;;;;11.63;7.35;;;18.20;75.90;;;18.86;43.27;97779.16;5082860;27;20035;-79
2023/01/10 01:27:33;;;;;;;11.68;8.10;;;18.20;76.30;;;18.82;43.41;97786.50;5067285;27;20039;-79
2023/01/10 01:30:00;;;;;;;9.15;7.47;;;18.20;76.40;;;18.83;43.37;97782.63;5081796;27;20039;-79
2023/01/10 01:32:27;;;;;;;10.55;7.47;;;18.20;76.60;;;18.81;43.22;97789.63;5064746;27;20047;-79
2023/01/10 01:34:53;;;;;;;9.18;6.15;;;18.20;76.00;;;18.83;43.07;97790.06;5063711;27;20111;-79
2023/01/10 01:37:19;;;;;;;9.40;7.13;;;18.20;76.00;;;18.80;42.98;97797.06;5075502;27;20041;-79
2023/01/10 01:39:46;;;;;;;8.82;6.50;;;18.20;75.90;;;18.81;43.17;97798.66;5083299;27;20130;-79
2023/01/10 01:42:22;;;;;;;11.93;7.90;;;18.20;75.90;;;18.81;43.35;97795.13;5078932;27;20046;-79
2023/01/10 01:45:07;;;;;;;11.65;7.05;;;18.20;76.40;;;18.83;43.46;97801.06;5097352;27;20050;-79
2023/01/10 01:47:51;;;;;;;11.10;6.75;;;18.20;76.40;;;18.79;43.24;97795.44;5130970;27;20047;-79
2023/01/10 01:50:37;;;;;;;11.38;7.07;;;18.20;76.10;;;18.81;43.01;97801.41;5078004;27;20040;-79
2023/01/10 01:53:18;;;;;;;10.63;6.75;;;18.20;76.00;;;18.81;43.16;97801.41;5094190;27;20046;-79
2023/01/10 01:55:45;;;;;;;8.40;7.22;;;18.20;76.00;;;18.83;43.14;97801.84;5082430;27;20035;-79
2023/01/10 01:58:16;;;;;;;10.27;6.57;;;18.10;75.90;;;18.84;43.33;97802.66;5081103;27;20072;-79
2023/01/10 02:00:43;;;;;;;8.90;6.53;;;18.20;76.30;;;18.80;43.30;97805.31;5094665;27;20047;-79
2023/01/10 02:03:09;;;;;;;9.30;6.78;;;18.20;76.30;;;18.80;43.22;97801.75;5110694;27;20073;-79
2023/01/10 02:05:36;;;;;;;9.82;6.63;;;18.20;76.10;;;18.80;43.09;97799.00;5062107;27;20043;-79
2023/01/10 02:08:03;;;;;;;10.75;6.80;;;18.10;75.90;;;18.81;43.15;97814.34;5080498;27;20047;-79
2023/01/10 02:10:45;;;;;;;8.45;6.38;;;18.20;76.00;;;18.77;43.31;97807.94;5113533;27;20485;-79
2023/01/10 02:13:12;;;;;;;;;;;18.10;75.80;;;18.77;43.29;97806.00;5077264;27;20532;-79
2023/01/10 02:15:38;;;;;;;10.15;6.88;;;18.10;76.20;;;18.79;43.22;97806.44;5082287;27;20366;-79
2023/01/10 02:18:04;;;;;;;6.93;6.13;;;18.20;76.40;;;18.80;43.24;97804.47;5078150;27;20103;-79
2023/01/10 02:21:15;;;;;;;9.75;6.75;;;18.20;76.60;;;18.76;43.27;97817.34;5113187;27;20501;-79
2023/01/10 02:24:40;;;;;;;10.18;6.43;;;18.10;76.00;;;18.73;43.13;97816.06;5102377;27;20060;-79
2023/01/10 02:27:47;;;;;;;8.48;6.70;;;18.10;76.10;;;18.71;43.17;97812.88;5065213;27;20055;-79
2023/01/10 02:31:06;;;;;;;10.73;6.10;;;18.10;76.00;;;18.78;43.38;97820.53;5100794;27;20046;-79
2023/01/10 02:33:49;;;;;;;12.07;6.80;;;18.20;76.50;;;18.76;43.31;97817.34;5113435;27;20535;-79
2023/01/10 02:36:34;;;;;;;9.52;6.68;;;18.20;76.50;;;18.74;43.22;97819.63;5098387;27;20115;-79
2023/01/10 02:39:44;;;;;;;11.82;7.00;;;18.10;76.00;;;18.71;43.27;97823.84;5093112;27;20121;-79
2023/01/10 02:42:41;;;;;;;7.90;6.18;;;18.10;76.00;;;18.72;43.20;97822.69;5119888;27;20047;-79
2023/01/10 02:45:24;;;;;;;9.52;6.80;;;18.00;75.90;;;18.74;43.21;97828.66;5115452;27;20073;-79
2023/01/10 02:47:50;;;;;;;8.40;6.13;;;18.10;76.30;;;18.76;43.27;97826.38;5094308;27;20495;-80
2023/01/10 02:50:43;;;;;;;7.30;5.70;;;18.10;76.30;;;18.74;43.34;97834.13;5077454;27;20519;-79
2023/01/10 02:53:16;;;;;;;9.82;6.75;;;18.20;76.40;;;18.72;43.23;97836.44;5096504;27;20035;-79
2023/01/10 02:56:00;;;;;;;8.40;5.72;;;18.10;76.00;;;18.68;43.35;97846.53;5111076;27;20035;-80
2023/01/10 02:58:59;;;;;;;7.38;5.95;;;18.10;76.80;;;18.70;43.17;97843.44;5130278;27;20043;-79
2023/01/10 03:01:35;;;;;;;8.23;5.90;;;18.10;75.90;;;18.69;43.22;97841.84;5132182;27;20043;-79
2023/01/10 03:04:19;;;;;;;8.80;6.20;;;18.10;75.90;;;18.66;43.06;97848.84;5110645;27;20062;-79
2023/01/10 03:07:15;;;;;;;9.07;6.32;;;18.10;76.00;;;18.67;43.22;97861.41;5110354;28;20104;-79
2023/01/10 03:09:53;;;;;;;6.95;5.88;;;18.10;75.90;;;18.68;43.14;97865.78;5110264;28;20122;-79
2023/01/10 03:12:39;;;;;;;7.07;5.63;;;18.10;75.80;;;18.72;43.17;97866.66;5069715;28;20444;-79
2023/01/10 03:15:05;;;;;;;9.20;6.22;;;18.10;76.10;;;18.70;43.42;97870.91;5093491;28;20092;-79
2023/01/10 03:17:32;;;;;;;8.50;6.35;;;18.10;76.40;;;18.69;43.16;97872.84;5075227;28;20156;-79
2023/01/10 03:20:04;;;;;;;8.05;5.88;;;18.10;76.00;;;18.69;43.20;97872.84;5093554;28;20179;-79
2023/01/10 03:22:30;;;;;;;6.85;5.38;;;18.10;76.00;;;18.65;43.23;97877.47;5087785;28;20036;-79
2023/01/10 03:24:58;;;;;;;8.82;5.50;;;18.00;75.90;;;18.68;43.10;97875.97;5085528;28;20114;-79
2023/01/10 03:27:54;;;;;;;9.45;5.85;;;18.00;75.90;;;18.64;43.24;97884.09;5076344;28;20505;-79
2023/01/10 03:30:25;;;;;;;8.60;6.60;;;18.00;75.90;;;18.65;43.09;97900.22;5091645;27;20340;-79
2023/01/10 03:32:52;;;;;;;9.38;6.25;;;18.00;75.90;;;18.64;43.19;97895.88;5106634;28;20040;-79
2023/01/10 03:35:19;;;;;;;7.30;6.05;;;18.00;75.90;;;18.65;43.29;97891.19;5050936;28;20535;-79
2023/01/10 03:37:53;;;;;;;7.70;5.47;;;18.00;76.30;;;18.68;43.46;97895.19;5076083;28;20039;-79
2023/01/10 03:40:46;;;;;;;7.18;6.15;;;18.00;76.40;;;18.63;43.35;97909.97;5092257;28;20062;-79
2023/01/10 03:46:24;;;;;;;8.00;6.03;;;18.00;76.00;;;18.60;43.08;97911.47;5094897;28;20035;-79
2023/01/10 03:48:50;;;;;;;6.72;5.32;;;18.00;76.00;;;18.62;43.08;97919.34;5091212;28;20119;-79
2023/01/10 03:51:16;;;;;;;9.40;6.13;;;18.00;75.90;;;18.65;43.31;97921.41;5075235;28;20366;-79
2023/01/10 03:53:43;;;;;;;8.40;5.68;;;18.00;76.10;;;18.62;43.27;97919.34;5075884;28;20044;-79
2023/01/10 03:56:13;;;;;;;8.60;6.53;;;18.10;76.20;;;18.61;43.41;97929.53;5072761;28;20039;-79
2023/01/10 03:58:40;;;;;;;8.45;5.78;;;18.00;76.30;;;18.62;43.35;97930.31;5106378;28;20040;-79
2023/01/10 04:01:06;;;;;;;7.32;5.35;;;18.00;75.90;;;18.62;43.18;97935.81;5073811;28;20043;-79
2023/01/10 04:03:32;;;;;;;9.10;6.18;;;18.00;76.00;;;18.57;43.23;97942.38;5092482;28;20051;-79
2023/01/10 04:05:58;;;;;;;7.85;5.97;;;18.00;75.90;;;18.59;43.20;97931.03;5076068;27;20089;-79
2023/01/10 04:08:24;;;;;;;7.88;5.22;;;18.00;76.00;;;18.62;43.43;97944.88;5093428;27;20504;-79
2023/01/10 04:10:50;;;;;;;6.72;5.38;;;18.00;76.50;;;18.65;43.51;97946.13;5096403;27;20047;-79
2023/01/10 04:13:16;;;;;;;6.60;5.10;;;18.00;76.50;;;18.62;43.34;97950.38;5095153;27;20041;-79
2023/01/10 04:15:42;;;;;;;6.35;4.68;;;18.00;76.10;;;18.59;43.17;97963.97;5076699;27;20039;-79
2023/01/10 04:18:09;;;;;;;5.53;4.82;;;18.00;76.30;;;18.54;43.59;97955.97;5131812;27;20046;-79
2023/01/10 04:20:35;;;;;;;7.15;5.30;;;18.00;76.20;;;18.55;43.30;97960.34;5075207;28;20043;-79
2023/01/10 04:23:01;;;;;;;6.68;4.50;;;17.90;76.20;;;18.56;43.32;97959.97;5077032;27;20031;-79
2023/01/10 04:25:27;;;;;;;7.57;5.47;;;17.90;76.20;;;18.56;43.35;97965.47;5059887;28;20043;-79
2023/01/10 04:27:53;;;;;;;6.55;5.22;;;17.90;76.20;;;18.53;43.24;97965.38;5089749;28;20036;-79
2023/01/10 04:30:19;;;;;;;8.10;5.05;;;17.90;76.30;;;18.50;43.24;97972.38;5077612;28;20039;-79
2023/01/10 04:32:46;;;;;;;8.20;5.05;;;17.90;76.30;;;18.53;43.21;97976.38;5091813;28;20048;-80
2023/01/10 04:35:12;;;;;;;6.07;4.55;;;17.80;76.20;;;18.51;43.18;97979.44;5095023;28;20122;-80
2023/01/10 04:37:39;;;;;;;7.55;5.20;;;17.80;76.10;;;18.56;43.05;97978.41;5113796;28;20038;-80
2023/01/10 04:40:06;;;;;;;7.45;5.47;;;17.80;76.10;;;18.49;43.27;97973.50;5060145;28;20043;-80
2023/01/10 04:42:32;;;;;;;6.38;5.10;;;17.90;77.10;;;18.49;43.35;97975.44;5079470;28;20039;-79
2023/01/10 04:44:58;;;;;;;8.07;5.90;;;17.80;76.20;;;18.51;43.32;97992.38;5075857;28;20539;-79
2023/01/10 04:47:24;;;;;;;7.40;4.90;;;17.80;76.10;;;18.54;43.67;97988.94;5091180;28;20110;-79
2023/01/10 04:49:50;;;;;;;6.97;4.85;;;17.90;76.30;;;18.55;43.47;97985.84;5111371;28;20065;-79
2023/01/10 04:52:16;;;;;;;5.93;4.90;;;17.90;76.30;;;18.56;43.30;97992.94;5096953;28;20039;-80
2023/01/10 04:54:42;;;;;;;6.43;5.18;;;17.90;76.40;;;18.50;43.39;97999.81;5079079;28;20181;-79
2023/01/10 04:57:09;;;;;;;6.30;3.92;;;17.90;76.30;;;18.50;43.33;98008.06;5079925;27;20047;-79
2023/01/10 04:59:34;;;;;;;8.20;5.40;;;17.80;76.20;;;18.48;43.05;98013.09;5078750;27;20054;-79
2023/01/10 05:02:01;;;;;;;5.85;4.72;;;17.80;76.30;;;18.50;43.29;98016.31;5083865;27;20475;-79
2023/01/10 05:04:27;;;;;;;5.28;4.35;;;17.80;76.20;;;18.53;43.38;98023.06;5099012;27;20115;-79
2023/01/10 05:06:53;;;;;;;4.55;4.07;;;17.90;76.30;;;18.56;43.57;98027.84;5082960;27;20138;-79
2023/01/10 05:09:19;;;;;;;6.97;5.25;;;17.90;76.30;;;18.54;43.29;98025.44;5083265;27;20076;-79
2023/01/10 05:11:45;;;;;;;4.70;4.00;;;17.90;76.30;;;18.52;43.23;98025.00;5085523;27;20035;-79
2023/01/10 05:14:11;;;;;;;8.27;5.28;;;17.90;76.30;;;18.48;43.35;98032.31;5099236;27;20040;-79
2023/01/10 05:16:38;;;;;;;5.82;4.00;;;17.80;76.20;;;18.50;43.25;98040.22;5101476;27;20039;-79
2023/01/10 05:19:04;;;;;;;7.15;4.65;;;17.80;76.20;;;18.50;43.49;98043.75;5101633;27;20061;-79
2023/01/10 05:21:30;;;;;;;5.43;4.10;;;17.80;76.20;;;18.54;43.63;98046.59;5081532;27;20130;-79
2023/01/10 05:23:56;;;;;;;6.60;3.92;;;17.80;76.30;;;18.57;43.46;98048.66;5100353;27;20036;-79
2023/01/10 05:26:23;;;;;;;9.30;4.85;;;17.90;76.30;;;18.50;43.38;98056.69;5084486;27;20043;-79
2023/01/10 05:28:49;;;;;;;4.93;4.22;;;17.90;76.30;;;18.43;43.28;98063.56;5055724;27;20424;-79
2023/01/10 05:31:17;;;;;;;4.50;4.05;;;17.80;76.20;;;18.44;43.30;98069.84;5098539;27;20049;-79
2023/01/10 05:33:47;;;;;;;4.43;3.92;;;17.80;76.20;;;18.42;43.49;98077.63;5108170;27;20066;-79
2023/01/10 05:36:13;;;;;;;7.53;4.28;;;17.80;76.30;;;18.50;43.99;98078.66;5095808;27;20031;-79
2023/01/10 05:38:39;;;;;;;7.22;4.22;;;17.90;76.40;;;18.50;43.72;98082.22;5057749;27;20027;-79
2023/01/10 05:41:06;;;;;;;5.47;4.82;;;17.90;76.40;;;18.49;43.45;98079.78;5099610;27;20045;-79
2023/01/10 05:43:31;;;;;;;5.22;4.47;;;17.80;76.20;;;18.42;43.56;98092.16;5116265;27;20047;-79
2023/01/10 05:45:58;;;;;;;6.00;4.07;;;17.80;76.20;;;18.41;43.47;98089.75;5082546;27;20039;-79
2023/01/10 05:48:24;;;;;;;5.63;4.30;;;17.80;76.30;;;18.42;43.49;98094.13;5081344;27;20042;-79
2023/01/10 05:50:50;;;;;;;5.85;4.07;;;17.70;76.10;;;18.37;43.56;98105.31;5065789;27;20612;-79
2023/01/10 05:53:17;;;;;;;6.13;4.43;;;17.70;76.10;;;18.40;43.61;98102.69;5077658;27;20039;-79
2023/01/10 05:55:55;;;;;;;5.80;4.40;;;17.70;76.10;;;18.41;43.30;98107.03;5097534;27;20039;-79
2023/01/10 05:58:21;;;;;;;5.72;4.40;;;17.70;76.10;;;18.42;43.26;98108.63;5084060;27;20445;-79
2023/01/10 06:00:47;;;;;;;5.32;3.60;;;17.70;76.20;;;18.42;43.32;98116.88;5100686;27;20043;-79
2023/01/10 06:03:14;;;;;;;4.85;4.07;;;17.70;76.10;;;18.39;43.24;98117.56;5093288;27;20082;-79
2023/01/10 06:05:40;;;;;;;5.18;3.88;;;17.70;76.10;;;18.38;43.18;98113.19;5082119;27;20035;-79
2023/01/10 06:08:06;;;;;;;5.45;3.55;;;17.70;76.10;;;18.46;43.63;98125.22;5081772;27;20106;-79
2023/01/10 06:10:33;;;;;;;3.83;3.22;;;17.70;76.20;;;18.48;43.47;98127.63;5082705;27;20039;-79
2023/01/10 06:12:59;;;;;;;7.13;3.75;;;17.80;76.20;;;18.46;43.61;98127.16;5099706;27;20035;-79
2023/01/10 06:15:25;;;;;;;5.85;4.07;;;17.80;76.20;;;18.42;43.53;98129.81;5081785;27;20031;-79
2023/01/10 06:17:52;;;;;;;3.25;2.95;;;17.70;76.10;;;18.36;43.27;98131.94;5083687;27;20039;-79
2023/01/10 06:20:18;;;;;;;4.70;3.88;;;17.70;76.10;;;18.38;43.27;98134.38;5098719;27;20456;-79
2023/01/10 06:22:44;;;;;;;4.30;3.53;;;17.70;76.10;;;18.36;43.55;98129.22;5098829;27;20039;-79
2023/01/10 06:25:11;;;;;;;3.42;3.00;;;17.60;76.00;;;18.40;43.65;98145.81;5097806;27;20427;-79
2023/01/10 06:27:41;;;;;;;5.13;3.67;;;17.60;76.50;;;18.44;43.62;98150.28;5081871;27;20059;-79
2023/01/10 06:30:09;;;;;;;7.18;3.63;;;17.70;76.40;;;18.43;43.38;98153.38;5098087;27;20806;-79
2023/01/10 06:32:35;;;;;;;5.43;3.85;;;17.70;77.00;;;18.36;43.53;98158.63;5080986;27;20070;-79
2023/01/10 06:35:02;;;;;;;4.25;3.67;;;17.70;76.10;;;18.34;43.44;98164.47;5111864;27;20118;-79
2023/01/10 06:37:29;;;;;;;4.78;3.85;;;17.70;76.10;;;18.37;43.49;98174.75;5114250;27;20083;-79
2023/01/10 06:39:55;;;;;;;5.15;3.83;;;17.60;76.00;;;18.32;43.56;98180.47;5081449;27;20095;-79
2023/01/10 06:42:21;;;;;;;5.20;3.80;;;17.60;76.20;;;18.24;43.32;98184.09;5096236;27;20530;-79
2023/01/10 06:44:48;;;;;;;6.00;3.42;;;17.50;76.20;;;18.30;43.51;98187.44;5133984;27;20411;-79
2023/01/10 06:47:14;;;;;;;3.30;3.00;;;17.50;76.40;;;18.34;43.34;98185.59;5098699;27;20045;-79
2023/01/10 06:49:40;;;;;;;4.78;3.75;;;17.50;76.10;;;18.25;43.48;98191.19;5112270;27;20039;-79
2023/01/10 06:52:06;;;;;;;5.20;4.03;;;17.50;76.40;;;18.28;43.42;98195.22;5098725;27;20038;-79
2023/01/10 06:54:32;;;;;;;3.85;3.28;;;17.50;76.30;;;18.33;43.25;98198.53;5082396;27;20435;-79
2023/01/10 06:56:58;;;;;;;5.47;3.38;;;17.50;76.20;;;18.27;43.53;98197.16;5098707;27;20471;-79
2023/01/10 06:59:25;;;;;;;4.88;3.33;;;17.50;76.00;;;18.28;43.34;98196.00;5094992;27;20096;-79
2023/01/10 07:01:51;;;;;;;5.43;3.83;;;17.50;76.00;;;18.32;43.19;98198.88;5081439;27;20490;-79
2023/01/10 07:04:17;;;;;;;4.07;3.63;;;17.50;76.20;;;18.31;43.31;98195.31;5096087;27;20035;-79
2023/01/10 07:06:43;;;;;;;4.50;3.30;;;17.50;76.20;;;18.25;43.32;98190.41;5079933;27;20053;-79
2023/01/10 07:09:09;;;;;;;5.40;4.05;;;17.50;76.20;;;18.25;43.44;98187.66;5081113;27;20035;-79
2023/01/10 07:11:35;;;;;;;4.00;2.90;;;17.50;76.40;;;18.28;43.37;98196.00;5079412;27;20027;-79
2023/01/10 07:14:01;;;;;;;5.43;3.95;;;17.40;76.60;;;18.30;43.54;98187.44;5088885;27;20032;-79
2023/01/10 07:16:27;;;;;;;5.22;3.03;;;17.40;76.70;;;18.31;43.51;98198.06;5129303;27;20043;-79
2023/01/10 07:18:57;;;;;;;3.30;3.00;;;17.50;77.00;;;18.33;43.59;98209.53;5073562;27;20035;-79
2023/01/10 07:21:23;;;;;;;4.10;3.17;;;17.60;76.90;;;18.30;43.46;98207.47;5075385;27;20043;-79
2023/01/10 07:23:49;;;;;;;4.13;3.22;;;17.50;76.20;;;18.23;43.35;98202.50;5088989;27;20035;-79
2023/01/10 07:26:16;;;;;;;4.97;3.30;;;17.50;76.20;;;18.24;43.29;98211.53;5110816;27;20126;-79
2023/01/10 07:28:49;;;;;;;5.70;3.60;;;17.50;76.50;;;18.24;43.40;98217.03;5091531;27;20047;-79
2023/01/10 07:31:19;;;;;;;4.07;3.17;;;17.40;76.60;;;18.23;43.44;98215.44;5089807;27;20046;-79
2023/01/10 07:33:45;;;;;;;5.53;3.58;;;17.40;76.50;;;18.23;43.17;98215.44;5071745;27;20569;-79
2023/01/10 07:36:11;;;;;;;3.38;2.80;;;17.40;76.60;;;18.22;43.30;98219.34;5093115;27;20084;-79
2023/01/10 07:38:37;;;;;;;3.63;3.15;;;17.40;76.30;;;18.21;43.29;98226.75;5073925;27;20043;-79
2023/01/10 07:41:04;;;;;;;3.15;2.90;;;17.40;76.30;;;18.23;43.37;98229.16;5114750;27;20050;-79
2023/01/10 07:43:31;;;;;;;3.97;3.15;;;17.40;76.40;;;18.22;43.39;98235.81;5056985;27;20160;-79
2023/01/10 07:46:01;;;;;;;4.35;3.25;;;17.40;76.40;;;18.23;43.37;98229.16;5114359;27;20039;-79
2023/01/10 07:48:27;;;;;;;4.25;2.88;;;17.40;76.60;;;18.23;43.46;98220.94;5109856;27;20047;-79
2023/01/10 07:50:57;;;;;;;4.53;3.00;;;17.30;76.30;;;18.26;43.41;98224.94;5054997;27;20046;-79
2023/01/10 07:53:24;;;;;;;3.70;3.03;;;17.40;76.90;;;18.30;43.65;98229.41;5074442;27;20043;-79
2023/01/10 07:55:50;;;;;;;3.92;3.08;;;17.40;77.10;;;18.30;43.54;98236.84;5061394;27;20620;-79
2023/01/10 07:58:16;;;;;;;4.00;2.92;;;17.50;77.00;;;18.25;43.40;98229.63;5093530;27;20072;-79
2023/01/10 08:00:44;;;;;;;4.32;3.20;;;17.50;76.60;;;18.21;43.48;98236.94;5094941;27;20054;-79
2023/01/10 08:03:11;;;;;;;4.78;3.28;;;17.40;76.50;;;18.22;43.67;98242.09;5078313;27;20686;-79
2023/01/10 08:05:38;;;;;;;3.33;2.95;;;17.40;76.60;;;18.21;43.43;98234.19;5076703;27;20036;-79
2023/01/10 08:08:09;;;;;;;3.00;2.70;;;17.40;76.50;;;18.27;43.53;98237.50;5081925;27;20047;-79
2023/01/10 08:10:35;;;;;;;3.75;2.92;;;17.50;76.90;;;18.28;43.58;98256.41;5077432;27;20397;-79
2023/01/10 08:13:02;;;;;;;3.30;3.00;;;17.40;76.70;;;18.22;43.66;98263.25;5062212;28;20481;-79
2023/01/10 08:15:29;;;;;;;3.50;2.58;;;17.50;76.80;;;18.18;43.42;98259.56;5079886;27;20058;-79
2023/01/10 08:18:00;;;;;;;4.05;2.95;;;17.40;76.50;;;18.20;43.71;98266.31;5072926;27;20083;-79
2023/01/10 08:20:26;;;;;;;3.25;2.75;;;17.40;76.70;;;18.20;43.44;98265.53;5096806;27;20078;-79
2023/01/10 08:22:52;;;;;;;3.92;2.75;;;17.40;76.70;;;18.21;43.22;98270.66;5095482;28;20047;-79
2023/01/10 08:25:18;;;;;;;3.00;2.50;;;17.40;76.70;;;18.18;43.29;98274.09;5107232;28;20050;-79
2023/01/10 08:27:44;;;;;;;5.55;3.33;;;17.30;76.50;;;18.18;43.40;98281.53;5079068;28;20043;-80
2023/01/10 08:30:11;;;;;;;3.30;2.80;;;17.40;76.60;;;18.18;43.38;98281.53;5067667;28;20038;-79
2023/01/10 08:32:38;;;;;;;3.58;2.88;;;17.30;76.60;;;18.22;43.34;98282.47;5075368;28;20070;-79
2023/01/10 08:35:05;;;;;;;2.92;2.45;;;17.40;76.70;;;18.20;43.43;98293.78;5093468;28;20043;-79
2023/01/10 08:37:31;;;;;;;3.17;2.90;;;17.40;76.20;;;18.20;43.33;98296.53;5076680;28;20043;-79
2023/01/10 08:40:01;;;;;;;2.95;2.65;;;17.40;76.50;;;18.20;43.32;98295.72;5127646;28;20112;-79
2023/01/10 08:42:28;;;;;;;3.45;2.95;;;17.40;76.50;;;18.21;43.27;98295.38;5111076;28;20960;-79
2023/01/10 08:44:54;;;;;;;3.90;3.05;;;17.30;76.40;;;18.22;43.31;98302.47;5112083;28;20053;-79
2023/01/10 08:47:21;;;;;;;3.70;2.58;;;17.30;76.40;;;18.23;43.03;98301.34;5079003;28;20059;-79
2023/01/10 08:49:48;;;;;;;3.25;2.65;;;17.30;76.10;;;18.20;43.18;98315.75;5095597;28;20142;-79
2023/01/10 08:52:15;;;;;;;4.40;2.85;;;17.40;76.20;;;18.21;43.23;98311.03;5110506;28;20117;-79
2023/01/10 08:54:42;;;;;;;3.47;2.95;;;17.40;76.40;;;18.18;43.30;98318.00;5077112;28;20180;-79
2023/01/10 08:57:08;;;;;;;3.42;2.42;;;17.30;76.30;;;18.19;43.16;98324.28;5110068;28;20580;-79
2023/01/10 08:59:34;;;;;;;2.88;2.55;;;17.40;76.40;;;18.19;43.12;98327.03;5104898;28;20046;-79
2023/01/10 09:02:00;;;;;;;3.40;3.00;;;17.40;76.10;;;18.19;43.16;98336.09;5105957;28;20468;-79
2023/01/10 09:04:28;;;;;;;3.22;2.35;;;17.40;76.20;;;18.17;43.36;98354.84;5107853;28;20039;-79
2023/01/10 09:06:55;;;;;;;2.90;2.63;;;17.40;76.10;;;18.22;43.31;98346.41;5089503;28;20130;-79
2023/01/10 09:09:21;;;;;;;7.10;2.33;;;17.40;76.70;;;18.26;43.42;98345.72;5129014;28;20067;-79
2023/01/10 09:11:47;;;;;;;3.35;2.97;;;17.50;76.70;;;18.22;43.28;98351.91;5093276;28;20087;-79
2023/01/10 09:14:14;;;;;;;6.70;3.00;;;17.40;76.00;;;18.23;43.36;98352.69;5094603;28;20035;-79
2023/01/10 09:16:40;;;;;;;3.97;2.83;;;17.40;76.10;;;18.17;43.47;98362.28;5091423;28;20039;-79
2023/01/10 09:19:06;;;;;;;3.53;2.10;;;17.40;76.30;;;18.22;43.20;98356.59;5081175;28;20576;-79
2023/01/10 09:21:35;;;;;;;3.88;2.47;;;17.40;76.00;;;18.19;43.32;98357.22;5085038;28;20043;-79
2023/01/10 09:24:01;;;;;;;4.00;3.38;;;17.30;76.20;;;18.17;43.16;98365.03;5106691;28;20058;-79
2023/01/10 09:26:27;;;;;;;5.00;3.47;;;17.30;76.30;;;18.18;43.08;98372.13;5088622;28;20074;-79
2023/01/10 09:28:53;;;;;;;5.10;2.83;;;17.30;76.40;;;18.16;43.06;98368.88;5126787;28;20619;-79
2023/01/10 09:31:21;;;;;;;3.33;2.30;;;17.30;76.30;;;18.17;43.50;98367.78;5109854;28;20562;-79
2023/01/10 09:33:48;;;;;;;4.28;2.88;;;17.40;76.40;;;18.19;43.02;98368.22;5091478;28;20035;-79
2023/01/10 09:36:15;;;;;;;3.65;2.88;;;17.40;76.10;;;18.18;43.16;98375.66;5094411;28;20054;-79
2023/01/10 09:38:41;;;;;;;3.17;2.53;;;17.30;76.00;;;18.17;43.31;98387.78;5060137;28;20095;-79
2023/01/10 09:41:22;;;;;;;2.85;2.58;;;17.30;76.20;;;18.16;43.14;98380.66;5111516;28;20405;-79
2023/01/10 09:44:16;;;;;;;5.47;2.38;;;17.30;76.20;;;18.18;42.99;98383.09;5113317;27;20107;-79
2023/01/10 09:47:26;;;;;;;5.32;2.90;;;17.30;76.30;;;18.20;43.08;98394.53;5130430;27;20071;-79
2023/01/10 09:50:11;;;;;;;3.63;3.13;;;17.30;76.10;;;18.15;43.19;98389.25;5057898;27;20140;-79
2023/01/10 09:52:41;;;;;;;2.63;1.95;;;17.30;76.10;;;18.19;43.43;98391.00;5133502;27;20039;-79
2023/01/10 09:55:34;;;;;;;2.65;2.40;;;17.30;76.60;;;18.23;43.29;98391.13;5098095;27;20094;-79
2023/01/10 09:58:09;;;;;;;2.95;2.42;;;17.40;76.50;;;18.22;43.44;98398.56;5093455;27;20128;-79
2023/01/10 10:00:49;;;;;;;2.92;2.50;;;17.50;76.60;;;18.16;43.28;98397.13;5077503;27;20047;-79
2023/01/10 10:03:42;;;;;;;3.30;2.20;;;17.50;75.90;;;18.20;43.23;98411.81;5078411;27;20071;-79
2023/01/10 10:06:12;;;;;;;2.95;2.67;;;17.40;75.80;;;18.19;43.35;98407.47;5080290;27;20054;-79
2023/01/10 10:08:44;;;;;;;4.70;2.53;;;17.40;75.80;;;18.19;43.33;98407.47;5077442;27;20036;-79
2023/01/10 10:11:25;;;;;;;3.37;2.23;;;17.40;76.10;;;18.24;43.35;98414.69;5079070;27;20890;-79
2023/01/10 10:14:25;;;;;;;2.80;2.50;;;17.50;76.30;;;18.18;43.40;98416.81;5109001;27;20277;-79
2023/01/10 10:17:32;;;;;;;3.35;2.58;;;17.50;76.20;;;18.17;43.23;98420.72;5130353;27;20470;-79
2023/01/10 10:20:09;;;;;;;2.88;2.47;;;17.40;75.80;;;18.18;43.43;98427.81;5118470;27;20058;-79
2023/01/10 10:22:44;;;;;;;2.58;2.03;;;17.40;76.00;;;18.21;43.16;98429.88;5109979;27;20047;-79
2023/01/10 10:25:36;;;;;;;3.35;2.05;;;17.40;75.90;;;18.20;43.64;98436.53;5128516;27;20046;-79
2023/01/10 10:28:30;;;;;;;2.30;1.90;;;17.40;76.50;;;18.22;43.41;98445.22;5107790;27;20058;-79
2023/01/10 10:31:15;;;;;;;3.35;2.33;;;17.50;76.50;;;18.20;43.39;98442.00;5110223;27;20539;-79
2023/01/10 10:34:14;;;;;;;3.25;2.75;;;17.50;76.00;;;18.19;43.28;98453.31;5111496;27;20506;-80
2023/01/10 10:36:52;;;;;;;3.53;2.38;;;17.40;75.90;;;18.16;43.32;98449.28;5129439;27;20047;-79
2023/01/10 10:39:24;;;;;;;2.75;2.17;;;17.40;75.80;;;18.12;43.26;98453.06;5077478;27;20543;-80
2023/01/10 10:41:52;;;;;;;2.55;2.22;;;17.40;75.80;;;18.18;43.16;98454.47;5079573;27;20043;-80
2023/01/10 10:44:26;;;;;;;3.03;2.15;;;17.50;75.90;;;18.16;43.17;98453.97;5090140;27;20050;-80